ROMMA est une association bénévole à but non lucratif. Votre soutien est indispensable : ADHERER à ROMMA ou FAIRE un DON

Briord - (01, Ain)

Bugey (281 m)   Longitude: 05° 29' 13" E   Latitude: 45° 46' 37" N Station partenaire n°15
 

Détail journalier du     <<     >>

Température Precipitation Humidité Pression Vent Dir Rafale Dir. rafale Ensol.
Heure (°C) (mm) (%) (hPa) (km/h) (km/h) (min)
01:00 5.408510151---6N0
02:00 5.408310141NE6N0
03:00 4.208710152SSE10SSE0
04:00 2.7089101505SSE0
05:00 1.6090101503SSE0
06:00 0.7091101500---0
07:00 0.2092101602E0
08:00 0.3093101700---0
09:00 3.8090101700---45
10:00 5.708310171O6O60
11:00 7.208010172O6O60
12:00 9.507410173O11ONO60
13:00 11.607110175O15O45
14:00 12.606110167NO21ONO30
15:00 13.2059101613NO31NNO0
16:00 14.7053101618NO35O50
17:00 14.3052101520NO35NO60
18:00 13.9051101620NO42NO60
19:00 13.7051101612NO35NO60
20:00 11.8053101611NNO29N55
21:00 10.505710175NNO19NNO0
22:00 9.605910172ONO15NO0
23:00 8.706210172ONO18ONO0
minuit 4.807810171SSE6SSE0

Graphique du 12-04-2019

 

Serveur OMMA